Airfield :
LOGIN :

Register | Disclaimer

   EN    FR    IT 

 










Legend :    VFR   Marginal VFR   IFR   Intensive IFR   Very Intensive IFR
Visi :
Ceiling :
>= 8 km
>= 3000ft
5 to 8 km
1000 to 3000 ft
1500m to 5 km
500 to 1000 ft
800 to 1500m
200 to 500 ft
< 800m
< 200 ft
Symbols :   Thunderstorms  Fog  Heavy snow  Heavy precipitations  Wind > 20 kt
SIGMETs :     Misc.  Thunderstorms  Icing  Turbulence  Mountain Waves  Volcanic Ashes







- Airport Elevation : 220 ft
- IATA code : CWL
- Download approach charts


EGFF - Cardiff Rhoose

CURRENT METAR :
  • 222020Z AUTO 25006KT 9999 SCT023 18/17 Q1021

EXPIRED METARs :
  • 221950Z AUTO 25003KT 9999 SCT023 20/16 Q1021
  • 221920Z AUTO 29006KT 9999 OVC024 21/16 Q1021
  • 221850Z AUTO 29008KT 9999 BKN025 21/16 Q1021
  • 221820Z AUTO 30010KT 9999 BKN028 BKN036 21/16 Q1021
  • 221750Z AUTO 29011KT 9999 BKN029 BKN033 22/16 Q1021

TAF TAF EGFF
Valid from the 22 at 18:00 until the 23 at 18:00 UTC


221657Z 2218/2318 28010KT 9999 FEW012 BKN035
BECMG 2218/2221 BKN010
BECMG 2223/2301 VRB03KT 8000 BKN006
PROB40 2223/2307 3000 BR BKN002
BECMG 2306/2309 09010KT
BECMG 2308/2311 CAVOK
BECMG 2315/2318 18005KT
ATIS : +44 1446 729 319
No reported NOTAMs for that airfield.



MET'MAP, your aeronautical weather chart ! - Copyright ORBIFLY December 2007 - Disclaimer

ORBIFLY MET'MAP TEAM :

Programming & Development : Alexandra Zaïnal
Concept & Development : Baudouin d'Aumeries
Co-Development & Prog : Marc-Olivier Méhu
Technical & hardware support : Manuel Goepfert

Contact : metmap@orbifly.com




SOURCES & CREDITS :

   NOAA